Time,TemperatureF,DewpointF,PressureIn,WindDirection,WindDirectionDegrees,WindSpeedMPH,WindSpeedGustMPH,Humidity,HourlyPrecipIn,Conditions,Clouds,dailyrainin,SoftwareType,DateUTC
2013-06-23 10:20:00,84.9,73.6,29.89,SW,225,5.0,15.0,69,0.00,,,0.00,VWS V14.00,2013-06-23 15:20:00,
2013-06-23 10:22:00,84.7,73.4,29.89,SSW,198,7.0,8.0,69,0.00,,,0.00,VWS V14.00,2013-06-23 15:22:00,
2013-06-23 10:23:00,84.7,73.4,29.89,SSW,198,7.0,8.0,69,0.00,,,0.00,VWS V14.00,2013-06-23 15:23:00,
2013-06-23 10:25:00,84.5,73.7,29.89,SW,225,7.0,16.0,70,0.00,,,0.00,VWS V14.00,2013-06-23 15:25:00,
2013-06-23 10:35:00,84.5,73.7,29.89,SW,225,7.0,16.0,70,0.00,,,0.00,VWS V14.00,2013-06-23 15:35:00,
2013-06-23 10:40:00,84.2,72.9,29.89,South,186,6.0,18.0,69,0.00,,,0.00,VWS V14.00,2013-06-23 15:40:00,
2013-06-23 10:45:00,84.0,73.6,29.89,South,189,6.0,16.0,71,0.00,,,0.00,VWS V14.00,2013-06-23 15:45:00,
2013-06-23 10:50:00,84.2,74.2,29.89,SW,216,0.0,10.0,72,0.00,,,0.00,VWS V14.00,2013-06-23 15:50:00,
2013-06-23 10:55:00,84.3,73.9,29.90,SSW,192,0.0,8.0,71,0.00,,,0.00,VWS V14.00,2013-06-23 15:55:00,
2013-06-23 11:00:00,84.2,73.4,29.89,South,186,7.0,12.0,70,0.00,,,0.00,VWS V14.00,2013-06-23 16:00:00,
2013-06-23 11:05:00,84.3,74.7,29.90,SSW,201,1.0,7.0,73,0.00,,,0.00,VWS V14.00,2013-06-23 16:05:00,
2013-06-23 11:10:00,84.3,73.9,29.90,South,187,4.0,10.0,71,0.00,,,0.00,VWS V14.00,2013-06-23 16:10:00,
2013-06-23 11:15:00,84.3,73.9,29.90,SSE,162,10.0,10.0,71,0.00,,,0.00,VWS V14.00,2013-06-23 16:15:00,
2013-06-23 11:20:00,84.1,72.8,29.90,South,183,12.0,12.0,69,0.00,,,0.00,VWS V14.00,2013-06-23 16:20:00,
2013-06-23 11:25:00,84.0,74.8,29.90,South,170,7.0,11.0,74,0.00,,,0.00,VWS V14.00,2013-06-23 16:25:00,
2013-06-23 11:30:00,84.1,74.5,29.90,South,177,4.0,8.0,73,0.00,,,0.00,VWS V14.00,2013-06-23 16:30:00,
2013-06-23 11:35:00,84.3,74.7,29.90,South,172,7.0,12.0,73,0.00,,,0.00,VWS V14.00,2013-06-23 16:35:00,
2013-06-23 11:40:00,84.5,72.8,29.90,SSW,198,5.0,15.0,68,0.00,,,0.00,VWS V14.00,2013-06-23 16:40:00,
2013-06-23 11:45:00,84.5,74.9,29.90,SSW,199,9.0,13.0,73,0.00,,,0.00,VWS V14.00,2013-06-23 16:45:00,
2013-06-23 11:50:00,85.4,76.2,29.90,SSW,201,4.0,14.0,74,0.00,,,0.00,VWS V14.00,2013-06-23 16:50:00,
2013-06-23 11:55:00,85.6,75.1,29.90,WSW,241,4.0,11.0,71,0.00,,,0.00,VWS V14.00,2013-06-23 16:55:00,
2013-06-23 11:57:00,85.8,75.7,29.90,South,182,2.0,9.0,72,0.00,,,0.00,VWS V14.00,2013-06-23 16:57:00,
2013-06-23 12:02:00,85.8,74.5,29.90,South,191,1.0,8.0,69,0.00,,,0.00,VWS V14.00,2013-06-23 17:02:00,
2013-06-23 12:07:00,85.7,75.2,29.90,SSW,204,5.0,7.0,71,0.00,,,0.00,VWS V14.00,2013-06-23 17:07:00,
2013-06-23 12:12:00,86.3,76.6,29.90,SSE,160,6.0,8.0,73,0.00,,,0.00,VWS V14.00,2013-06-23 17:12:00,
2013-06-23 12:17:00,86.9,75.9,29.91,SSW,199,7.0,7.0,70,0.00,,,0.00,VWS V14.00,2013-06-23 17:17:00,
2013-06-23 12:22:00,86.6,74.8,29.90,SSW,202,7.0,12.0,68,0.00,,,0.00,VWS V14.00,2013-06-23 17:22:00,
2013-06-23 12:27:00,85.8,74.5,29.90,SSE,166,4.0,7.0,69,0.00,,,0.00,VWS V14.00,2013-06-23 17:27:00,
2013-06-23 12:32:00,86.0,74.7,29.90,South,182,0.0,10.0,69,0.00,,,0.00,VWS V14.00,2013-06-23 17:32:00,
2013-06-23 12:37:00,86.2,76.1,29.90,South,176,0.0,10.0,72,0.00,,,0.00,VWS V14.00,2013-06-23 17:37:00,
2013-06-23 12:42:00,86.5,75.1,29.90,South,170,0.0,9.0,69,0.00,,,0.00,VWS V14.00,2013-06-23 17:42:00,
2013-06-23 12:47:00,86.8,74.5,29.90,South,187,6.0,7.0,67,0.00,,,0.00,VWS V14.00,2013-06-23 17:47:00,
2013-06-23 12:52:00,87.2,76.2,29.89,WSW,237,4.0,9.0,70,0.00,,,0.00,VWS V14.00,2013-06-23 17:52:00,
2013-06-23 12:57:00,87.9,76.0,29.89,SW,229,0.0,5.0,68,0.00,,,0.00,VWS V14.00,2013-06-23 17:57:00,
2013-06-23 13:02:00,88.2,74.5,29.89,SSW,195,10.0,12.0,64,0.00,,,0.00,VWS V14.00,2013-06-23 18:02:00,
2013-06-23 13:07:00,88.1,75.8,29.88,SSW,194,0.0,5.0,67,0.00,,,0.00,VWS V14.00,2013-06-23 18:07:00,
2013-06-23 13:12:00,88.4,75.6,29.88,South,171,4.0,9.0,66,0.00,,,0.00,VWS V14.00,2013-06-23 18:12:00,
2013-06-23 13:17:00,88.4,76.1,29.88,South,188,0.0,6.0,67,0.00,,,0.00,VWS V14.00,2013-06-23 18:17:00,
2013-06-23 13:22:00,88.1,74.9,29.88,SSW,210,9.0,11.0,65,0.00,,,0.00,VWS V14.00,2013-06-23 18:22:00,
2013-06-23 13:27:00,87.4,76.4,29.88,SW,223,6.0,12.0,70,0.00,,,0.00,VWS V14.00,2013-06-23 18:27:00,
2013-06-23 13:32:00,87.6,77.0,29.88,WSW,253,1.0,1.0,71,0.00,,,0.00,VWS V14.00,2013-06-23 18:32:00,
2013-06-23 13:37:00,87.5,75.6,29.88,SSW,212,0.0,8.0,68,0.00,,,0.00,VWS V14.00,2013-06-23 18:37:00,
2013-06-23 13:42:00,87.9,76.9,29.87,West,266,2.0,7.0,70,0.00,,,0.00,VWS V14.00,2013-06-23 18:42:00,
2013-06-23 13:47:00,88.3,75.5,29.87,SW,218,1.0,8.0,66,0.00,,,0.00,VWS V14.00,2013-06-23 18:47:00,
2013-06-23 13:52:00,88.5,77.0,29.87,South,179,7.0,10.0,69,0.00,,,0.00,VWS V14.00,2013-06-23 18:52:00,
2013-06-23 13:57:00,88.4,76.1,29.86,SSW,202,4.0,8.0,67,0.00,,,0.00,VWS V14.00,2013-06-23 18:57:00,
2013-06-23 14:02:00,88.3,75.1,29.86,SW,224,1.0,10.0,65,0.00,,,0.00,VWS V14.00,2013-06-23 19:02:00,
2013-06-23 14:07:00,88.5,76.6,29.85,SE,144,4.0,8.0,68,0.00,,,0.00,VWS V14.00,2013-06-23 19:07:00,
2013-06-23 14:12:00,88.6,75.8,29.85,SSE,160,2.0,9.0,66,0.00,,,0.00,VWS V14.00,2013-06-23 19:12:00,
2013-06-23 14:17:00,88.7,76.3,29.85,South,170,3.0,8.0,67,0.00,,,0.00,VWS V14.00,2013-06-23 19:17:00,
2013-06-23 14:22:00,88.4,74.2,29.85,SSE,159,11.0,14.0,63,0.00,,,0.00,VWS V14.00,2013-06-23 19:22:00,
2013-06-23 14:27:00,88.0,75.7,29.85,SSW,192,0.0,7.0,67,0.00,,,0.00,VWS V14.00,2013-06-23 19:27:00,
2013-06-23 14:32:00,87.9,76.5,29.85,SSW,211,0.0,10.0,69,0.00,,,0.00,VWS V14.00,2013-06-23 19:32:00,
2013-06-23 14:37:00,88.1,76.7,29.85,SSW,194,5.0,13.0,69,0.00,,,0.00,VWS V14.00,2013-06-23 19:37:00,
2013-06-23 14:42:00,88.3,75.5,29.84,SSW,203,0.0,10.0,66,0.00,,,0.00,VWS V14.00,2013-06-23 19:42:00,
2013-06-23 14:47:00,88.2,75.0,29.84,South,178,7.0,11.0,65,0.00,,,0.00,VWS V14.00,2013-06-23 19:47:00,
2013-06-23 14:52:00,88.3,76.0,29.84,SSW,196,12.0,12.0,67,0.00,,,0.00,VWS V14.00,2013-06-23 19:52:00,
2013-06-23 14:57:00,87.6,74.8,29.83,SW,218,5.0,13.0,66,0.00,,,0.00,VWS V14.00,2013-06-23 19:57:00,
2013-06-23 15:02:00,87.1,74.4,29.83,SSW,205,7.0,12.0,66,0.00,,,0.00,VWS V14.00,2013-06-23 20:02:00,
2013-06-23 15:07:00,86.8,73.6,29.83,South,191,5.0,12.0,65,0.00,,,0.00,VWS V14.00,2013-06-23 20:07:00,
2013-06-23 15:12:00,86.8,74.1,29.83,South,187,1.0,11.0,66,0.00,,,0.00,VWS V14.00,2013-06-23 20:12:00,
2013-06-23 15:17:00,86.9,75.5,29.83,SSW,195,8.0,12.0,69,0.00,,,0.00,VWS V14.00,2013-06-23 20:17:00,
2013-06-23 15:22:00,87.1,74.4,29.84,SSW,207,1.0,13.0,66,0.00,,,0.00,VWS V14.00,2013-06-23 20:22:00,
2013-06-23 15:27:00,87.0,74.3,29.84,SE,145,12.0,15.0,66,0.00,,,0.00,VWS V14.00,2013-06-23 20:27:00,
2013-06-23 15:32:00,86.6,73.9,29.84,South,190,7.0,12.0,66,0.00,,,0.00,VWS V14.00,2013-06-23 20:32:00,
2013-06-23 15:37:00,86.5,73.8,29.83,South,178,5.0,11.0,66,0.00,,,0.00,VWS V14.00,2013-06-23 20:37:00,
2013-06-23 15:42:00,86.5,74.2,29.83,SSW,211,7.0,12.0,67,0.00,,,0.00,VWS V14.00,2013-06-23 20:42:00,
2013-06-23 15:47:00,86.3,74.1,29.83,SSE,165,6.0,10.0,67,0.00,,,0.00,VWS V14.00,2013-06-23 20:47:00,
2013-06-23 15:52:00,86.1,74.3,29.82,SSE,166,6.0,15.0,68,0.00,,,0.00,VWS V14.00,2013-06-23 20:52:00,
2013-06-23 15:57:00,86.1,73.0,29.82,South,185,8.0,14.0,65,0.00,,,0.00,VWS V14.00,2013-06-23 20:57:00,
2013-06-23 16:02:00,86.5,74.2,29.82,SSE,159,4.0,12.0,67,0.00,,,0.00,VWS V14.00,2013-06-23 21:02:00,
2013-06-23 16:07:00,87.1,74.8,29.81,South,189,10.0,14.0,67,0.00,,,0.00,VWS V14.00,2013-06-23 21:07:00,
2013-06-23 16:12:00,87.7,74.5,29.82,SE,133,2.0,14.0,65,0.00,,,0.00,VWS V14.00,2013-06-23 21:12:00,
2013-06-23 16:17:00,88.0,74.8,29.82,SSE,154,4.0,16.0,65,0.00,,,0.00,VWS V14.00,2013-06-23 21:17:00,
2013-06-23 16:22:00,87.9,73.7,29.82,South,172,9.0,17.0,63,0.00,,,0.00,VWS V14.00,2013-06-23 21:22:00,
2013-06-23 16:27:00,87.9,73.3,29.82,SSE,168,6.0,17.0,62,0.00,,,0.00,VWS V14.00,2013-06-23 21:27:00,
2013-06-23 16:32:00,88.0,73.4,29.81,South,178,10.0,15.0,62,0.00,,,0.00,VWS V14.00,2013-06-23 21:32:00,
2013-06-23 16:37:00,88.1,74.4,29.81,South,185,17.0,17.0,64,0.00,,,0.00,VWS V14.00,2013-06-23 21:37:00,
2013-06-23 16:42:00,88.0,73.8,29.81,SSE,160,7.0,15.0,63,0.00,,,0.00,VWS V14.00,2013-06-23 21:42:00,
2013-06-23 16:47:00,88.1,73.4,29.80,SSE,147,9.0,17.0,62,0.00,,,0.00,VWS V14.00,2013-06-23 21:47:00,
2013-06-23 16:52:00,88.3,74.6,29.80,SSE,163,1.0,11.0,64,0.00,,,0.00,VWS V14.00,2013-06-23 21:52:00,
2013-06-23 16:57:00,88.2,73.6,29.81,SE,134,8.0,14.0,62,0.00,,,0.00,VWS V14.00,2013-06-23 21:57:00,
2013-06-23 17:02:00,88.3,75.5,29.81,SE,124,8.0,12.0,66,0.00,,,0.00,VWS V14.00,2013-06-23 22:02:00,
2013-06-23 17:07:00,87.9,73.3,29.81,East,79,9.0,17.0,62,0.00,,,0.00,VWS V14.00,2013-06-23 22:07:00,
2013-06-23 17:12:00,86.1,73.0,29.81,East,98,8.0,8.0,65,0.00,,,0.00,VWS V14.00,2013-06-23 22:12:00,
2013-06-23 17:17:00,84.9,73.2,29.81,SE,145,4.0,8.0,68,0.00,,,0.00,VWS V14.00,2013-06-23 22:17:00,
2013-06-23 17:22:00,84.2,73.8,29.81,ESE,103,0.0,9.0,71,0.00,,,0.00,VWS V14.00,2013-06-23 22:22:00,
2013-06-23 17:27:00,84.1,74.5,29.82,ENE,70,6.0,6.0,73,0.00,,,0.00,VWS V14.00,2013-06-23 22:27:00,
2013-06-23 17:32:00,83.3,72.5,29.82,ENE,64,14.0,14.0,70,0.00,,,0.00,VWS V14.00,2013-06-23 22:32:00,
2013-06-23 17:37:00,82.2,72.3,29.82,ENE,66,9.0,17.0,72,0.00,,,0.00,VWS V14.00,2013-06-23 22:37:00,
2013-06-23 17:42:00,81.5,72.4,29.82,East,79,5.0,13.0,74,0.00,,,0.00,VWS V14.00,2013-06-23 22:42:00,
2013-06-23 17:47:00,81.2,72.5,29.82,East,84,9.0,13.0,75,0.00,,,0.00,VWS V14.00,2013-06-23 22:47:00,
2013-06-23 17:52:00,81.0,72.7,29.82,East,99,8.0,9.0,76,0.00,,,0.00,VWS V14.00,2013-06-23 22:52:00,
2013-06-23 17:57:00,80.8,71.3,29.82,East,80,5.0,13.0,73,0.00,,,0.00,VWS V14.00,2013-06-23 22:57:00,
2013-06-23 18:02:00,80.5,71.1,29.82,SE,129,3.0,18.0,73,0.00,,,0.00,VWS V14.00,2013-06-23 23:02:00,
2013-06-23 18:07:00,80.3,71.7,29.81,East,95,4.0,12.0,75,0.00,,,0.00,VWS V14.00,2013-06-23 23:07:00,
2013-06-23 18:12:00,80.1,71.9,29.81,East,89,3.0,16.0,76,0.00,,,0.00,VWS V14.00,2013-06-23 23:12:00,
2013-06-23 18:17:00,79.8,71.2,29.81,SE,139,10.0,11.0,75,0.00,,,0.00,VWS V14.00,2013-06-23 23:17:00,
2013-06-23 18:22:00,79.5,70.9,29.81,ESE,108,4.0,16.0,75,0.00,,,0.00,VWS V14.00,2013-06-23 23:22:00,
2013-06-23 18:27:00,79.5,71.3,29.81,SE,128,11.0,13.0,76,0.00,,,0.00,VWS V14.00,2013-06-23 23:27:00,
2013-06-23 18:32:00,79.5,71.7,29.81,East,99,10.0,14.0,77,0.00,,,0.00,VWS V14.00,2013-06-23 23:32:00,
2013-06-23 18:37:00,79.4,71.2,29.81,SSE,153,10.0,13.0,76,0.00,,,0.00,VWS V14.00,2013-06-23 23:37:00,
2013-06-23 18:42:00,79.5,71.3,29.81,SE,132,0.0,14.0,76,0.00,,,0.00,VWS V14.00,2013-06-23 23:42:00,
2013-06-23 18:47:00,79.6,71.8,29.81,South,174,1.0,6.0,77,0.00,,,0.00,VWS V14.00,2013-06-23 23:47:00,
2013-06-23 18:52:00,79.5,71.3,29.81,ESE,118,6.0,10.0,76,0.00,,,0.00,VWS V14.00,2013-06-23 23:52:00,
2013-06-23 18:57:00,79.4,71.6,29.81,East,82,7.0,13.0,77,0.00,,,0.00,VWS V14.00,2013-06-23 23:57:00,
2013-06-23 19:02:00,79.3,71.5,29.81,ESE,117,9.0,12.0,77,0.00,,,0.00,VWS V14.00,2013-06-24 00:02:00,
2013-06-23 19:07:00,79.3,71.8,29.82,ESE,123,4.0,8.0,78,0.00,,,0.00,VWS V14.00,2013-06-24 00:07:00,
2013-06-23 19:12:00,79.2,71.4,29.82,East,98,7.0,10.0,77,0.00,,,0.00,VWS V14.00,2013-06-24 00:12:00,
2013-06-23 19:17:00,79.1,71.7,29.82,ESE,103,7.0,11.0,78,0.00,,,0.00,VWS V14.00,2013-06-24 00:17:00,
2013-06-23 19:22:00,79.0,71.6,29.83,East,88,5.0,9.0,78,0.00,,,0.00,VWS V14.00,2013-06-24 00:22:00,
2013-06-23 19:27:00,78.9,71.5,29.83,East,94,4.0,12.0,78,0.00,,,0.00,VWS V14.00,2013-06-24 00:27:00,
2013-06-23 19:32:00,78.9,71.1,29.83,East,99,8.0,12.0,77,0.00,,,0.00,VWS V14.00,2013-06-24 00:32:00,
2013-06-23 19:37:00,78.8,71.4,29.84,East,101,7.0,9.0,78,0.00,,,0.00,VWS V14.00,2013-06-24 00:37:00,
2013-06-23 19:42:00,78.8,71.7,29.84,East,88,7.0,11.0,79,0.00,,,0.00,VWS V14.00,2013-06-24 00:42:00,
2013-06-23 19:47:00,78.6,71.6,29.84,East,100,7.0,9.0,79,0.00,,,0.00,VWS V14.00,2013-06-24 00:47:00,
2013-06-23 19:52:00,78.5,71.4,29.84,East,82,2.0,7.0,79,0.00,,,0.00,VWS V14.00,2013-06-24 00:52:00,
2013-06-23 19:57:00,78.4,71.3,29.84,East,97,2.0,10.0,79,0.00,,,0.00,VWS V14.00,2013-06-24 00:57:00,
2013-06-23 20:02:00,78.3,71.3,29.84,ESE,122,4.0,11.0,79,0.00,,,0.00,VWS V14.00,2013-06-24 01:02:00,
2013-06-23 20:07:00,78.1,71.1,29.84,East,89,5.0,9.0,79,0.00,,,0.00,VWS V14.00,2013-06-24 01:07:00,
2013-06-23 20:12:00,78.0,71.0,29.85,East,101,7.0,11.0,79,0.00,,,0.00,VWS V14.00,2013-06-24 01:12:00,
2013-06-23 20:17:00,77.8,70.8,29.85,SE,125,5.0,7.0,79,0.00,,,0.00,VWS V14.00,2013-06-24 01:17:00,
2013-06-23 20:22:00,77.8,70.8,29.85,East,93,2.0,9.0,79,0.00,,,0.00,VWS V14.00,2013-06-24 01:22:00,
2013-06-23 20:27:00,77.7,71.0,29.85,East,101,5.0,7.0,80,0.00,,,0.00,VWS V14.00,2013-06-24 01:27:00,
2013-06-23 20:32:00,77.6,70.9,29.85,ESE,112,4.0,7.0,80,0.00,,,0.00,VWS V14.00,2013-06-24 01:32:00,
2013-06-23 20:37:00,77.4,70.8,29.85,East,101,0.0,5.0,80,0.00,,,0.00,VWS V14.00,2013-06-24 01:37:00,
2013-06-23 20:42:00,77.3,71.0,29.86,East,97,4.0,7.0,81,0.00,,,0.00,VWS V14.00,2013-06-24 01:42:00,
2013-06-23 20:47:00,77.1,70.8,29.86,East,97,5.0,8.0,81,0.00,,,0.00,VWS V14.00,2013-06-24 01:47:00,
2013-06-23 20:52:00,76.9,70.6,29.86,East,101,3.0,5.0,81,0.00,,,0.00,VWS V14.00,2013-06-24 01:52:00,
2013-06-23 20:57:00,76.7,70.8,29.86,East,95,5.0,5.0,82,0.00,,,0.00,VWS V14.00,2013-06-24 01:57:00,
2013-06-23 21:02:00,76.5,71.0,29.86,ESE,110,6.0,6.0,83,0.00,,,0.00,VWS V14.00,2013-06-24 02:02:00,
2013-06-23 21:07:00,76.4,70.9,29.86,East,99,4.0,8.0,83,0.00,,,0.00,VWS V14.00,2013-06-24 02:07:00,
2013-06-23 21:12:00,76.2,70.7,29.86,East,89,2.0,6.0,83,0.00,,,0.00,VWS V14.00,2013-06-24 02:12:00,
2013-06-23 21:17:00,76.0,70.8,29.86,ESE,114,3.0,6.0,84,0.00,,,0.00,VWS V14.00,2013-06-24 02:17:00,
2013-06-23 21:22:00,75.8,70.6,29.87,ESE,104,1.0,7.0,84,0.00,,,0.00,VWS V14.00,2013-06-24 02:22:00,
2013-06-23 21:27:00,75.7,70.9,29.87,East,100,7.0,7.0,85,0.00,,,0.00,VWS V14.00,2013-06-24 02:27:00,
2013-06-23 21:35:00,75.5,70.7,29.87,ESE,112,2.0,7.0,85,0.00,,,0.00,VWS V14.00,2013-06-24 02:35:00,
2013-06-23 21:45:00,75.3,70.5,29.88,ESE,112,3.0,8.0,85,0.00,,,0.00,VWS V14.00,2013-06-24 02:45:00,
2013-06-23 21:50:00,75.3,70.5,29.88,ESE,112,3.0,9.0,85,0.00,,,0.00,VWS V14.00,2013-06-24 02:50:00,
2013-06-23 21:55:00,75.2,70.4,29.88,ESE,112,4.0,9.0,85,0.00,,,0.00,VWS V14.00,2013-06-24 02:55:00,
2013-06-23 22:00:00,75.1,70.3,29.88,ESE,112,5.0,11.0,85,0.00,,,0.00,VWS V14.00,2013-06-24 03:00:00,
2013-06-23 22:05:00,75.2,70.0,29.88,ESE,112,4.0,10.0,84,0.00,,,0.00,VWS V14.00,2013-06-24 03:05:00,
2013-06-23 22:15:00,75.2,70.0,29.89,ESE,112,4.0,9.0,84,0.00,,,0.00,VWS V14.00,2013-06-24 03:15:00,
2013-06-23 22:20:00,75.2,70.0,29.89,ESE,112,4.0,10.0,84,0.00,,,0.00,VWS V14.00,2013-06-24 03:20:00,
2013-06-23 22:25:00,75.1,70.3,29.90,ESE,112,3.0,8.0,85,0.00,,,0.00,VWS V14.00,2013-06-24 03:25:00,
2013-06-23 22:30:00,74.9,70.1,29.90,ESE,112,3.0,8.0,85,0.00,,,0.00,VWS V14.00,2013-06-24 03:30:00,
2013-06-23 22:35:00,74.8,70.0,29.90,ESE,112,3.0,7.0,85,0.00,,,0.00,VWS V14.00,2013-06-24 03:35:00,
2013-06-23 22:40:00,74.8,70.0,29.90,ESE,112,3.0,8.0,85,0.00,,,0.00,VWS V14.00,2013-06-24 03:40:00,
2013-06-23 22:45:00,74.7,69.9,29.90,ESE,112,3.0,7.0,85,0.00,,,0.00,VWS V14.00,2013-06-24 03:45:00,
2013-06-23 22:50:00,74.6,70.1,29.91,ESE,112,3.0,6.0,86,0.00,,,0.00,VWS V14.00,2013-06-24 03:50:00,
2013-06-23 22:55:00,74.5,70.0,29.91,ESE,112,2.0,6.0,86,0.00,,,0.00,VWS V14.00,2013-06-24 03:55:00,
2013-06-23 23:00:00,74.4,69.9,29.91,ESE,112,3.0,6.0,86,0.00,,,0.00,VWS V14.00,2013-06-24 04:00:00,
2013-06-23 23:05:00,74.2,69.8,29.91,ESE,112,2.0,7.0,86,0.00,,,0.00,VWS V14.00,2013-06-24 04:05:00,
2013-06-23 23:10:00,74.1,70.0,29.91,ESE,112,2.0,7.0,87,0.00,,,0.00,VWS V14.00,2013-06-24 04:10:00,
2013-06-23 23:15:00,74.0,69.9,29.91,ESE,112,2.0,7.0,87,0.00,,,0.00,VWS V14.00,2013-06-24 04:15:00,
2013-06-23 23:20:00,73.9,69.8,29.91,ESE,112,3.0,6.0,87,0.00,,,0.00,VWS V14.00,2013-06-24 04:20:00,
2013-06-23 23:25:00,73.9,69.8,29.91,SE,135,3.0,8.0,87,0.00,,,0.00,VWS V14.00,2013-06-24 04:25:00,
2013-06-23 23:35:00,73.9,69.8,29.91,SE,135,4.0,8.0,87,0.00,,,0.00,VWS V14.00,2013-06-24 04:35:00,
2013-06-23 23:45:00,73.9,69.8,29.92,SE,135,2.0,6.0,87,0.00,,,0.00,VWS V14.00,2013-06-24 04:45:00,
2013-06-23 23:50:00,73.9,69.8,29.92,SE,135,3.0,6.0,87,0.00,,,0.00,VWS V14.00,2013-06-24 04:50:00,
2013-06-23 23:55:00,73.8,69.7,29.92,SE,135,2.0,6.0,87,0.00,,,0.00,VWS V14.00,2013-06-24 04:55:00,